Terminal Aerodrome Forecast
Issued by NWS Wilmington, OH

Current Version | Previous Version | Graphics & Text | Print | Product List | Glossary On
Versions: 1 2 3 4 5 6 7 8 9 10 11 12 13 14 15 16 17 18 19 20 21 22 23 24 25 26 27
000
FTUS41 KILN 181700 RRA
TAFCVG
TAF
KCVG 181742Z 1818/1924 24013G22KT P6SM BKN035
     FM182200 23010KT P6SM OVC035
     FM190800 19010KT P6SM BKN050
     FM191400 20015G22KT P6SM BKN090
     FM191800 20016G24KT P6SM BKN050=

USA.gov is the U.S. government's official web portal to all federal, state and local government web resources and services.